Time;durP1;ratioP1;P1;durP2;ratioP2;P2;SDS_P1;SDS_P2;PMS_P1;PMS_P2;Temp;Humidity;BMP_temperature;BMP_pressure;BME280_temperature;BME280_humidity;BME280_pressure;Samples;Min_cycle;Max_cycle;Signal;HPM_P1;HPM_P2
2022/01/13 00:00:30;;;;;;;17.80;17.00;;;6.30;77.00;;;;;;5052245;28;20389;-83
2022/01/13 00:02:56;;;;;;;18.10;17.30;;;6.30;77.20;;;;;;5053150;28;20032;-83
2022/01/13 00:05:30;;;;;;;17.57;16.77;;;6.30;77.20;;;;;;5072090;28;20020;-83
2022/01/13 00:07:57;;;;;;;18.63;17.73;;;6.20;77.20;;;;;;5073010;28;20118;-83
2022/01/13 00:10:24;;;;;;;18.63;17.73;;;6.20;77.30;;;;;;5103671;28;20477;-83
2022/01/13 00:12:58;;;;;;;18.03;17.13;;;6.20;77.30;;;;;;5103644;28;20032;-82
2022/01/13 00:15:37;;;;;;;19.03;18.03;;;6.20;77.40;;;;;;5054115;28;20036;-83
2022/01/13 00:18:11;;;;;;;17.50;16.70;;;6.20;77.40;;;;;;5071318;28;20055;-83
2022/01/13 00:20:59;;;;;;;17.90;17.00;;;6.10;77.40;;;;;;5070140;28;20029;-83
2022/01/13 00:26:12;;;;;;;17.13;16.33;;;6.10;77.50;;;;;;5057192;28;20039;-83
2022/01/13 00:28:38;;;;;;;17.17;16.37;;;6.10;77.50;;;;;;5070123;28;20037;-83
2022/01/13 00:31:06;;;;;;;19.17;18.17;;;6.10;77.60;;;;;;5070565;28;20054;-83
2022/01/13 00:33:32;;;;;;;18.13;17.23;;;6.00;77.50;;;;;;5052212;28;20024;-82
2022/01/13 00:35:59;;;;;;;16.97;16.10;;;6.00;77.60;;;;;;5070896;28;20047;-83
2022/01/13 00:38:30;;;;;;;17.70;16.80;;;6.00;77.70;;;;;;5069209;28;20037;-83
2022/01/13 00:40:56;;;;;;;16.95;16.13;;;6.00;77.70;;;;;;5072397;28;20047;-83
2022/01/13 00:43:23;;;;;;;17.30;16.50;;;6.00;77.70;;;;;;5087000;28;20458;-83
2022/01/13 00:45:49;;;;;;;17.93;17.13;;;6.00;77.70;;;;;;5085971;28;20032;-83
2022/01/13 00:48:15;;;;;;;17.00;16.20;;;6.00;77.80;;;;;;5070362;28;20481;-83
2022/01/13 00:50:42;;;;;;;17.10;16.30;;;6.00;77.80;;;;;;5069610;28;20035;-83
2022/01/13 00:53:08;;;;;;;18.77;17.67;;;6.00;77.80;;;;;;5069891;28;20369;-83
2022/01/13 00:55:49;;;;;;;17.53;16.73;;;6.00;77.90;;;;;;5104603;28;20035;-83
2022/01/13 00:58:16;;;;;;;18.30;17.42;;;5.90;77.80;;;;;;5070379;28;20031;-83
2022/01/13 01:00:42;;;;;;;17.80;16.77;;;5.90;77.90;;;;;;5069204;28;20067;-83
2022/01/13 01:03:09;;;;;;;17.20;16.40;;;5.90;77.90;;;;;;5067748;28;20032;-83
2022/01/13 01:05:35;;;;;;;17.63;16.63;;;5.90;78.00;;;;;;5069413;28;20025;-83
2022/01/13 01:08:03;;;;;;;16.97;16.17;;;5.90;78.00;;;;;;5070315;28;20024;-83
2022/01/13 01:10:29;;;;;;;16.07;15.37;;;5.90;78.10;;;;;;5070075;28;20051;-83
2022/01/13 01:12:55;;;;;;;17.07;16.27;;;5.80;78.10;;;;;;5067360;28;20017;-83
2022/01/13 01:15:21;;;;;;;17.87;16.53;;;5.80;78.20;;;;;;5068834;28;20068;-83
2022/01/13 01:17:54;;;;;;;17.27;16.33;;;5.80;78.20;;;;;;5069043;28;20071;-83
2022/01/13 01:20:20;;;;;;;16.50;15.70;;;5.80;78.30;;;;;;5068800;28;20033;-83
2022/01/13 01:25:34;;;;;;;16.60;15.80;;;5.80;78.40;;;;;;5058244;28;20025;-83
2022/01/13 01:28:01;;;;;;;16.53;15.73;;;5.70;78.40;;;;;;5055885;28;20051;-83
2022/01/13 01:30:40;;;;;;;16.37;15.30;;;5.70;78.40;;;;;;5068534;28;20036;-83
2022/01/13 01:33:07;;;;;;;17.17;16.37;;;5.70;78.50;;;;;;5069173;28;20386;-83
2022/01/13 01:35:33;;;;;;;16.67;15.87;;;5.70;78.40;;;;;;5037224;28;20485;-83
2022/01/13 01:37:59;;;;;;;17.10;16.30;;;5.70;78.40;;;;;;5053292;28;20025;-83
2022/01/13 01:40:25;;;;;;;17.33;16.43;;;5.70;78.50;;;;;;5070637;28;20491;-83
2022/01/13 01:42:52;;;;;;;17.30;16.30;;;5.70;78.50;;;;;;5050968;28;20044;-83
2022/01/13 01:45:19;;;;;;;16.87;16.07;;;5.70;78.50;;;;;;5069720;28;20043;-83
2022/01/13 01:47:45;;;;;;;17.10;16.30;;;5.70;78.50;;;;;;5052030;28;20035;-83
2022/01/13 01:50:18;;;;;;;18.90;17.50;;;5.70;78.50;;;;;;5069116;28;20382;-83
2022/01/13 01:52:47;;;;;;;17.80;16.90;;;5.70;78.50;;;;;;5071392;28;20107;-83
2022/01/13 01:55:14;;;;;;;17.33;16.53;;;5.70;78.50;;;;;;5069247;28;20065;-83
2022/01/13 01:57:40;;;;;;;17.60;16.80;;;5.70;78.50;;;;;;5069954;28;20024;-83
2022/01/13 02:00:09;;;;;;;17.57;16.77;;;5.60;78.50;;;;;;5068195;28;20028;-83
2022/01/13 02:02:35;;;;;;;17.20;16.40;;;5.60;78.60;;;;;;5068111;28;20500;-83
2022/01/13 02:05:02;;;;;;;16.77;15.87;;;5.60;78.60;;;;;;5053206;28;20025;-83
2022/01/13 02:07:28;;;;;;;16.70;15.90;;;5.60;78.70;;;;;;5069927;28;20020;-83
2022/01/13 02:09:55;;;;;;;17.27;16.17;;;5.60;78.70;;;;;;5069437;28;20043;-83
2022/01/13 02:12:34;;;;;;;17.17;16.37;;;5.60;78.70;;;;;;5052132;28;20036;-83
2022/01/13 02:17:40;;;;;;;16.97;16.17;;;5.50;78.70;;;;;;5072416;28;20056;-83
2022/01/13 02:20:07;;;;;;;;;;;5.50;78.80;;;;;;5073682;28;20390;-83
2022/01/13 02:22:33;;;;;;;16.40;15.60;;;5.50;78.80;;;;;;5106352;28;19912;-83
2022/01/13 02:24:59;;;;;;;17.13;16.33;;;5.50;78.80;;;;;;5070999;28;20040;-83
2022/01/13 02:27:25;;;;;;;17.47;16.67;;;5.40;78.80;;;;;;5073710;28;20029;-83
2022/01/13 02:29:52;;;;;;;17.20;16.40;;;5.40;78.90;;;;;;5071541;28;20027;-83
2022/01/13 02:32:18;;;;;;;18.77;17.80;;;5.40;78.80;;;;;;5035066;28;20040;-83
2022/01/13 02:34:44;;;;;;;18.60;17.60;;;5.50;78.90;;;;;;5087754;28;20033;-83
2022/01/13 02:37:10;;;;;;;17.30;16.50;;;5.40;78.90;;;;;;5068279;28;20040;-83
2022/01/13 02:39:37;;;;;;;17.93;17.13;;;5.40;78.80;;;;;;5034689;28;20021;-83
2022/01/13 02:42:11;;;;;;;17.40;16.60;;;5.40;78.80;;;;;;5053355;28;20037;-83
2022/01/13 02:45:14;;;;;;;18.57;17.67;;;5.40;78.80;;;;;;5052214;28;20028;-83
2022/01/13 02:50:08;;;;;;;18.40;17.40;;;5.40;78.90;;;;;;5053686;28;20022;-83
2022/01/13 02:52:35;;;;;;;16.27;15.57;;;5.40;78.90;;;;;;5086887;28;20021;-83
2022/01/13 02:55:01;;;;;;;17.80;17.00;;;5.40;78.90;;;;;;5067653;28;20048;-83
2022/01/13 02:57:27;;;;;;;17.10;16.30;;;5.40;78.90;;;;;;5083425;28;20492;-83
2022/01/13 02:59:53;;;;;;;18.57;17.37;;;5.40;78.90;;;;;;5083052;28;20025;-83
2022/01/13 03:02:19;;;;;;;16.70;15.90;;;5.40;78.90;;;;;;5047341;28;21437;-83
2022/01/13 03:04:46;;;;;;;16.97;16.17;;;5.40;79.00;;;;;;5049110;28;20390;-83
2022/01/13 03:07:13;;;;;;;16.30;15.50;;;5.40;78.90;;;;;;5043143;28;20036;-83
2022/01/13 03:09:39;;;;;;;16.63;15.83;;;5.50;79.00;;;;;;5044821;28;20025;-83
2022/01/13 03:12:05;;;;;;;16.30;15.60;;;5.40;78.90;;;;;;5042357;28;20036;-83
2022/01/13 03:14:31;;;;;;;16.67;15.87;;;5.50;79.00;;;;;;5034943;28;20033;-83
2022/01/13 03:16:57;;;;;;;16.63;15.83;;;5.40;78.90;;;;;;5067217;28;20057;-83
2022/01/13 03:19:23;;;;;;;16.23;15.53;;;5.40;78.90;;;;;;5070635;28;20045;-83
2022/01/13 03:21:50;;;;;;;17.60;16.80;;;5.40;79.00;;;;;;5061337;28;20033;-83
2022/01/13 03:24:16;;;;;;;18.07;17.17;;;5.40;79.00;;;;;;5059461;28;20029;-83
2022/01/13 03:26:44;;;;;;;17.53;16.73;;;5.30;79.00;;;;;;5054711;28;20043;-83
2022/01/13 03:31:36;;;;;;;17.23;16.43;;;5.30;79.20;;;;;;5089859;28;20055;-83
2022/01/13 03:34:02;;;;;;;16.07;15.37;;;5.20;79.20;;;;;;5090019;28;20036;-82
2022/01/13 03:36:29;;;;;;;16.40;15.70;;;5.20;79.30;;;;;;5090766;28;20040;-82
2022/01/13 03:38:55;;;;;;;18.37;17.30;;;5.20;79.30;;;;;;5079863;28;20504;-83
2022/01/13 03:41:21;;;;;;;16.63;15.83;;;5.20;79.20;;;;;;5054525;28;20038;-82
2022/01/13 03:43:51;;;;;;;16.87;15.93;;;5.20;79.20;;;;;;5106767;28;20032;-83
2022/01/13 03:46:17;;;;;;;17.97;16.97;;;5.10;79.20;;;;;;5100980;28;20048;-83
2022/01/13 03:48:43;;;;;;;19.37;17.43;;;5.10;79.20;;;;;;5103206;28;20021;-82
2022/01/13 03:51:09;;;;;;;19.73;18.53;;;5.10;79.30;;;;;;5071288;28;20041;-82
2022/01/13 03:53:57;;;;;;;18.50;17.60;;;5.10;79.30;;;;;;5070161;28;20709;-82
2022/01/13 03:56:41;;;;;;;18.77;17.83;;;5.10;79.30;;;;;;5055014;28;20049;-83
2022/01/13 03:59:28;;;;;;;17.80;17.00;;;5.00;79.20;;;;;;5071853;28;20037;-82
2022/01/13 04:02:08;;;;;;;18.73;17.83;;;5.00;79.20;;;;;;5068827;28;20416;-82
2022/01/13 04:04:48;;;;;;;19.30;18.40;;;5.00;79.30;;;;;;5055206;28;20053;-82
2022/01/13 04:07:18;;;;;;;18.60;17.70;;;5.00;79.30;;;;;;5053911;28;20024;-82
2022/01/13 04:09:44;;;;;;;18.45;17.55;;;5.00;79.20;;;;;;5070078;28;20029;-82
2022/01/13 04:12:12;;;;;;;17.70;16.90;;;4.90;79.20;;;;;;5071617;28;20032;-82
2022/01/13 04:17:11;;;;;;;16.60;15.80;;;4.90;79.30;;;;;;5071520;28;20079;-82
2022/01/13 04:19:37;;;;;;;18.10;17.20;;;4.90;79.40;;;;;;5088201;28;20035;-82
2022/01/13 04:22:04;;;;;;;18.87;17.70;;;4.80;79.30;;;;;;5103343;28;20041;-82
2022/01/13 04:24:30;;;;;;;16.70;15.90;;;4.80;79.40;;;;;;5070784;28;20031;-82
2022/01/13 04:26:57;;;;;;;16.90;16.10;;;4.80;79.40;;;;;;5051719;28;20025;-81
2022/01/13 04:29:37;;;;;;;16.50;15.70;;;4.80;79.40;;;;;;5070487;28;20025;-82
2022/01/13 04:32:04;;;;;;;16.90;16.10;;;4.80;79.40;;;;;;5096463;28;20036;-82
2022/01/13 04:34:30;;;;;;;17.07;16.17;;;4.70;79.40;;;;;;5071061;28;20037;-82
2022/01/13 04:36:59;;;;;;;17.43;16.57;;;4.70;79.40;;;;;;5036442;28;20047;-82
2022/01/13 04:39:26;;;;;;;16.37;15.63;;;4.80;79.50;;;;;;5069581;28;20020;-81
2022/01/13 04:41:53;;;;;;;16.40;15.60;;;4.70;79.40;;;;;;5069782;28;20047;-82
2022/01/13 04:44:20;;;;;;;16.87;16.07;;;4.70;79.40;;;;;;5053720;28;20037;-82
2022/01/13 04:46:47;;;;;;;16.37;15.57;;;4.70;79.50;;;;;;5104883;28;20043;-82
2022/01/13 04:49:14;;;;;;;16.27;15.47;;;4.70;79.50;;;;;;5085743;28;20044;-82
2022/01/13 04:51:40;;;;;;;16.87;16.07;;;4.70;79.60;;;;;;5083547;28;20036;-82
2022/01/13 04:54:06;;;;;;;17.00;16.20;;;4.70;79.60;;;;;;5053798;28;20036;-82
2022/01/13 04:56:43;;;;;;;16.40;15.63;;;4.60;79.60;;;;;;5069480;28;20558;-82
2022/01/13 04:59:09;;;;;;;17.03;16.23;;;4.60;79.60;;;;;;5054229;28;20111;-82
2022/01/13 05:01:36;;;;;;;17.13;16.27;;;4.60;79.60;;;;;;5104645;28;20497;-82
2022/01/13 05:04:02;;;;;;;17.07;16.20;;;4.60;79.70;;;;;;5070864;28;20095;-82
2022/01/13 05:06:28;;;;;;;16.33;15.63;;;4.60;79.70;;;;;;5067118;28;20426;-82
2022/01/13 05:08:54;;;;;;;16.57;15.77;;;4.60;79.80;;;;;;5070532;28;20029;-82
2022/01/13 05:11:21;;;;;;;17.37;16.47;;;4.50;79.80;;;;;;5036669;28;20040;-82
2022/01/13 05:13:47;;;;;;;16.97;16.07;;;4.60;79.90;;;;;;5104373;28;20040;-83
2022/01/13 05:16:28;;;;;;;17.67;16.87;;;4.60;80.00;;;;;;5083356;28;20036;-82
2022/01/13 05:19:11;;;;;;;17.65;16.85;;;4.60;80.20;;;;;;5068947;28;20036;-82
2022/01/13 05:22:22;;;;;;;18.77;17.87;;;4.50;80.10;;;;;;5070176;28;20040;-82
2022/01/13 05:24:24;;;;;;;17.57;16.77;;;4.60;80.10;;;;;;5062530;28;20040;-82
2022/01/13 05:26:50;;;;;;;18.10;17.20;;;4.60;80.10;;;;;;5068705;28;20025;-82
2022/01/13 05:29:19;;;;;;;17.57;16.77;;;4.60;80.10;;;;;;5069301;28;20037;-82
2022/01/13 05:31:47;;;;;;;18.53;17.60;;;4.50;80.00;;;;;;5071590;28;20036;-82
2022/01/13 05:34:14;;;;;;;17.70;16.70;;;4.60;80.10;;;;;;5051376;28;20028;-81
2022/01/13 05:36:40;;;;;;;17.90;16.90;;;4.60;80.00;;;;;;5068520;28;20033;-81
2022/01/13 05:39:06;;;;;;;17.07;16.27;;;4.60;80.00;;;;;;5068497;28;20043;-81
2022/01/13 05:41:33;;;;;;;17.50;16.70;;;4.60;79.90;;;;;;5053214;28;20032;-82
2022/01/13 05:44:00;;;;;;;16.33;15.53;;;4.60;80.00;;;;;;5070026;28;20028;-82
2022/01/13 05:46:26;;;;;;;16.97;16.17;;;4.60;80.00;;;;;;5084291;28;20040;-81
2022/01/13 05:48:54;;;;;;;17.37;16.47;;;4.60;80.00;;;;;;5084161;28;20047;-84
2022/01/13 05:51:23;;;;;;;17.17;16.37;;;4.60;80.00;;;;;;5101568;28;20609;-83
2022/01/13 05:53:50;;;;;;;16.73;15.93;;;4.70;80.00;;;;;;5068942;28;20021;-84
2022/01/13 05:56:16;;;;;;;18.30;17.40;;;4.60;79.90;;;;;;5068499;28;20040;-84
2022/01/13 05:58:42;;;;;;;17.73;16.87;;;4.60;79.90;;;;;;5067772;28;20036;-83
2022/01/13 06:01:08;;;;;;;17.67;16.80;;;4.60;80.00;;;;;;5096824;28;20033;-83
2022/01/13 06:03:34;;;;;;;18.03;17.23;;;4.70;80.00;;;;;;5084246;28;20056;-84
2022/01/13 06:06:00;;;;;;;17.70;16.90;;;4.60;79.90;;;;;;5051857;28;20029;-83
2022/01/13 06:08:26;;;;;;;17.17;16.27;;;4.70;80.00;;;;;;5068073;28;20032;-84
2022/01/13 06:10:53;;;;;;;18.27;17.37;;;4.70;80.10;;;;;;5069271;28;20095;-84
2022/01/13 06:13:19;;;;;;;18.10;17.20;;;4.70;80.10;;;;;;5051188;28;20037;-84
2022/01/13 06:15:45;;;;;;;17.37;16.57;;;4.70;80.10;;;;;;5067046;28;20029;-84
2022/01/13 06:18:12;;;;;;;17.77;16.97;;;4.60;80.00;;;;;;5067972;28;20052;-84
2022/01/13 06:20:39;;;;;;;18.70;17.23;;;4.70;80.10;;;;;;5068462;28;20481;-83
2022/01/13 06:23:07;;;;;;;18.20;17.20;;;4.60;80.00;;;;;;5052850;28;20044;-85
2022/01/13 06:25:34;;;;;;;17.53;16.60;;;4.60;80.10;;;;;;5084728;28;20029;-84
2022/01/13 06:28:00;;;;;;;17.63;16.73;;;4.60;80.10;;;;;;5084073;28;20378;-84
2022/01/13 06:30:26;;;;;;;16.53;15.70;;;4.60;80.10;;;;;;5067749;28;20036;-85
2022/01/13 06:32:52;;;;;;;16.63;15.63;;;4.60;80.20;;;;;;5053230;28;20044;-85
2022/01/13 06:35:18;;;;;;;16.23;15.43;;;4.60;80.20;;;;;;5102261;28;20039;-84
2022/01/13 06:37:45;;;;;;;16.33;15.53;;;4.60;80.20;;;;;;5071399;28;20076;-85
2022/01/13 06:40:13;;;;;;;15.80;15.10;;;4.60;80.20;;;;;;5068160;28;20032;-85
2022/01/13 06:42:39;;;;;;;16.60;15.80;;;4.50;80.10;;;;;;5069068;28;20032;-85
2022/01/13 06:45:06;;;;;;;17.73;16.83;;;4.50;80.10;;;;;;5067201;28;20036;-83
2022/01/13 06:47:32;;;;;;;18.97;17.40;;;4.50;80.10;;;;;;5051712;28;20024;-84
2022/01/13 06:49:58;;;;;;;16.13;15.33;;;4.50;80.10;;;;;;5052733;28;20029;-84
2022/01/13 06:52:24;;;;;;;15.90;15.20;;;4.50;80.10;;;;;;5053042;28;20045;-84
2022/01/13 06:54:52;;;;;;;17.77;16.87;;;4.50;80.10;;;;;;5069355;28;20029;-83
2022/01/13 06:57:19;;;;;;;18.47;17.20;;;4.50;80.20;;;;;;5069345;28;20032;-83
2022/01/13 06:59:46;;;;;;;16.00;15.20;;;4.50;80.20;;;;;;5068984;28;20031;-84
2022/01/13 07:02:13;;;;;;;16.67;15.77;;;4.50;80.20;;;;;;5070731;28;20032;-83
2022/01/13 07:04:39;;;;;;;15.73;15.03;;;4.50;80.20;;;;;;5055395;28;20055;-82
2022/01/13 07:07:05;;;;;;;15.30;14.60;;;4.50;80.20;;;;;;5054174;28;20029;-82
2022/01/13 07:09:31;;;;;;;16.57;15.77;;;4.50;80.30;;;;;;5105254;28;20031;-83
2022/01/13 07:11:57;;;;;;;16.70;15.90;;;4.40;80.20;;;;;;5088264;28;20029;-85
2022/01/13 07:14:23;;;;;;;15.33;14.63;;;4.40;80.20;;;;;;5071144;28;20025;-83
2022/01/13 07:16:50;;;;;;;16.90;15.90;;;4.40;80.20;;;;;;5069676;28;20048;-85
2022/01/13 07:19:16;;;;;;;16.57;15.77;;;4.40;80.20;;;;;;5056324;28;20516;-85
2022/01/13 07:21:43;;;;;;;17.03;16.13;;;4.40;80.20;;;;;;5054077;28;20031;-82
2022/01/13 07:24:09;;;;;;;16.00;15.10;;;4.40;80.20;;;;;;5071007;28;20399;-83
2022/01/13 07:26:36;;;;;;;16.10;15.30;;;4.40;80.20;;;;;;5053547;28;20044;-82
2022/01/13 07:29:02;;;;;;;16.40;15.60;;;4.40;80.20;;;;;;5072916;28;20508;-84
2022/01/13 07:31:28;;;;;;;15.83;15.13;;;4.40;80.20;;;;;;5068428;28;20032;-86
2022/01/13 07:33:55;;;;;;;16.47;15.67;;;4.40;80.20;;;;;;5095617;28;20486;-84
2022/01/13 07:36:21;;;;;;;16.37;15.57;;;4.40;80.20;;;;;;5091574;28;20033;-84
2022/01/13 07:38:47;;;;;;;15.97;15.17;;;4.40;80.20;;;;;;5064388;28;20033;-87
2022/01/13 07:41:13;;;;;;;18.63;16.83;;;4.40;80.30;;;;;;5069546;28;20044;-83
2022/01/13 07:43:42;;;;;;;17.83;16.53;;;4.40;80.30;;;;;;5053863;28;20055;-81
2022/01/13 07:46:09;;;;;;;15.57;14.87;;;4.40;80.30;;;;;;5080646;28;20029;-80
2022/01/13 07:48:35;;;;;;;16.37;15.60;;;4.40;80.30;;;;;;5081541;28;20051;-82
2022/01/13 07:51:01;;;;;;;16.37;15.37;;;4.40;80.30;;;;;;5067327;28;20044;-83
2022/01/13 07:53:27;;;;;;;16.07;15.27;;;4.40;80.40;;;;;;5085430;28;21442;-85
2022/01/13 07:55:53;;;;;;;16.73;15.93;;;4.30;80.30;;;;;;5093296;28;20032;-84
2022/01/13 07:58:19;;;;;;;16.13;15.37;;;4.30;80.40;;;;;;5069081;28;20032;-84
2022/01/13 08:00:45;;;;;;;16.63;15.83;;;4.30;80.40;;;;;;5053648;28;20029;-83
2022/01/13 08:03:11;;;;;;;16.97;16.17;;;4.30;80.40;;;;;;5039206;28;20045;-87
2022/01/13 08:05:38;;;;;;;17.60;16.57;;;4.30;80.40;;;;;;5048724;28;20033;-85
2022/01/13 08:08:04;;;;;;;17.47;16.07;;;4.30;80.40;;;;;;5045569;28;20040;-85
2022/01/13 08:10:30;;;;;;;16.60;15.77;;;4.30;80.40;;;;;;5039482;28;20463;-85
2022/01/13 08:12:56;;;;;;;16.47;15.67;;;4.30;80.40;;;;;;5039265;28;20042;-85
2022/01/13 08:15:23;;;;;;;16.53;15.73;;;4.30;80.40;;;;;;5066356;28;20053;-85
2022/01/13 08:20:34;;;;;;;17.33;16.23;;;4.40;80.40;;;;;;5059584;28;20036;-82
2022/01/13 08:23:00;;;;;;;17.50;16.60;;;4.30;80.40;;;;;;5068122;28;20485;-83
2022/01/13 08:25:26;;;;;;;16.60;15.80;;;4.40;80.40;;;;;;5074193;28;20032;-83
2022/01/13 08:27:54;;;;;;;16.50;15.70;;;4.40;80.40;;;;;;5093094;28;20471;-82
2022/01/13 08:30:20;;;;;;;16.33;15.53;;;4.40;80.40;;;;;;5097112;28;20035;-82
2022/01/13 08:32:46;;;;;;;16.73;15.93;;;4.40;80.40;;;;;;5089350;28;20476;-84
2022/01/13 08:35:13;;;;;;;16.80;15.90;;;4.50;80.40;;;;;;5098271;28;20032;-83
2022/01/13 08:37:39;;;;;;;16.77;15.97;;;4.50;80.40;;;;;;5056100;28;20044;-83
2022/01/13 08:40:07;;;;;;;18.17;17.17;;;4.50;80.30;;;;;;5091304;28;20044;-84
2022/01/13 08:42:36;;;;;;;17.10;15.97;;;4.60;80.40;;;;;;5065789;28;20044;-83
2022/01/13 08:45:03;;;;;;;15.57;14.87;;;4.60;80.20;;;;;;5097867;28;20056;-86
2022/01/13 08:47:29;;;;;;;16.20;15.50;;;4.60;80.20;;;;;;5084281;28;20029;-85
2022/01/13 08:49:56;;;;;;;18.10;17.10;;;4.70;80.30;;;;;;5060334;28;20025;-84
2022/01/13 08:52:23;;;;;;;16.50;15.60;;;4.60;80.20;;;;;;5091172;28;20029;-84
2022/01/13 08:54:50;;;;;;;17.40;16.40;;;4.70;80.30;;;;;;5089917;28;20032;-85
2022/01/13 08:57:16;;;;;;;16.00;15.30;;;4.70;80.20;;;;;;5055087;28;20409;-89
2022/01/13 08:59:42;;;;;;;16.63;15.83;;;4.70;80.20;;;;;;5098141;28;20025;-84
2022/01/13 09:02:09;;;;;;;16.33;15.53;;;4.70;80.20;;;;;;5052082;28;20044;-82
2022/01/13 09:04:35;;;;;;;17.00;16.20;;;4.80;80.30;;;;;;5073585;28;20776;-81
2022/01/13 09:07:01;;;;;;;17.53;16.63;;;4.80;80.10;;;;;;5065170;28;20044;-81
2022/01/13 09:09:28;;;;;;;17.33;16.43;;;4.80;80.10;;;;;;5173742;22;20064;-80
2022/01/13 09:11:54;;;;;;;16.67;15.87;;;4.90;80.10;;;;;;5027594;28;20400;-82
2022/01/13 09:14:25;;;;;;;17.63;16.63;;;4.90;80.10;;;;;;5015371;28;20044;-81
2022/01/13 09:16:52;;;;;;;18.65;17.75;;;4.90;80.10;;;;;;5029360;28;20037;-79
2022/01/13 09:19:19;;;;;;;17.90;16.97;;;4.90;80.00;;;;;;5025611;28;20044;-80
2022/01/13 09:21:46;;;;;;;16.30;15.50;;;4.90;80.10;;;;;;5027949;28;20026;-81
2022/01/13 09:24:16;;;;;;;16.10;15.30;;;5.00;80.20;;;;;;5028559;28;20042;-81
2022/01/13 09:26:42;;;;;;;16.83;16.02;;;5.00;80.30;;;;;;5061863;28;20030;-80
2022/01/13 09:29:09;;;;;;;17.37;16.57;;;5.00;80.40;;;;;;5030876;28;20037;-81
2022/01/13 09:31:36;;;;;;;16.87;16.07;;;5.00;80.50;;;;;;5029888;28;20033;-83
2022/01/13 09:34:02;;;;;;;16.83;16.03;;;5.00;80.50;;;;;;5028661;28;20052;-83
2022/01/13 09:36:29;;;;;;;16.63;15.83;;;5.00;80.50;;;;;;5063073;28;20377;-82
2022/01/13 09:38:57;;;;;;;16.97;16.17;;;5.10;80.60;;;;;;5032631;28;20026;-81
2022/01/13 09:41:25;;;;;;;18.90;17.47;;;5.10;80.50;;;;;;5015467;28;20048;-82
2022/01/13 09:43:51;;;;;;;17.57;16.77;;;5.20;80.60;;;;;;5028092;28;20493;-81
2022/01/13 09:46:17;;;;;;;17.23;16.43;;;5.30;80.50;;;;;;5062335;28;20045;-81
2022/01/13 09:48:44;;;;;;;17.90;16.90;;;5.40;80.50;;;;;;5062746;28;20033;-83
2022/01/13 09:51:10;;;;;;;17.30;16.50;;;5.50;80.40;;;;;;5029832;28;20033;-81
2022/01/13 09:53:37;;;;;;;16.10;15.40;;;5.50;80.30;;;;;;5047161;28;20045;-80
2022/01/13 09:56:04;;;;;;;18.43;17.53;;;5.60;80.20;;;;;;5046315;28;20393;-80
2022/01/13 09:58:30;;;;;;;18.90;17.97;;;5.70;80.20;;;;;;5030308;28;20032;-81
2022/01/13 10:00:56;;;;;;;17.97;17.07;;;5.80;80.00;;;;;;5061767;28;20049;-80
2022/01/13 10:03:26;;;;;;;17.63;16.83;;;5.80;79.90;;;;;;5014304;28;20045;-80
2022/01/13 10:05:55;;;;;;;18.40;17.60;;;5.90;79.90;;;;;;5044431;28;20038;-82
2022/01/13 10:08:42;;;;;;;19.13;17.97;;;5.90;79.80;;;;;;5030907;28;20484;-81
2022/01/13 10:11:27;;;;;;;17.93;17.03;;;6.00;79.80;;;;;;5014268;28;20041;-81
2022/01/13 10:14:11;;;;;;;19.63;18.53;;;6.00;79.80;;;;;;5030602;28;20077;-79
2022/01/13 10:16:50;;;;;;;18.27;17.37;;;6.10;79.80;;;;;;5030133;28;20425;-79
2022/01/13 10:19:25;;;;;;;18.20;17.30;;;6.20;79.70;;;;;;5026702;28;20045;-81
2022/01/13 10:21:57;;;;;;;19.00;18.10;;;6.20;79.60;;;;;;5028639;28;20037;-82
2022/01/13 10:24:25;;;;;;;19.30;18.23;;;6.30;79.50;;;;;;5043852;28;20492;-82
2022/01/13 10:27:11;;;;;;;17.40;16.60;;;6.30;79.40;;;;;;5031504;28;20404;-81
2022/01/13 10:29:40;;;;;;;17.43;16.63;;;6.40;79.50;;;;;;5030907;28;20025;-80
2022/01/13 10:32:07;;;;;;;21.77;20.43;;;6.50;79.20;;;;;;5030176;28;20034;-80
2022/01/13 10:34:36;;;;;;;19.87;18.90;;;6.60;79.10;;;;;;5028898;28;20409;-81
2022/01/13 10:37:16;;;;;;;19.20;18.30;;;6.70;79.00;;;;;;5018018;28;20061;-84
2022/01/13 10:40:06;;;;;;;19.50;18.60;;;6.70;79.00;;;;;;5066987;28;20052;-81
2022/01/13 10:45:12;;;;;;;18.37;17.23;;;6.80;79.10;;;;;;5035665;28;20049;-83
2022/01/13 10:47:41;;;;;;;18.00;17.20;;;6.80;79.10;;;;;;5028558;28;20018;-80
2022/01/13 10:50:10;;;;;;;19.53;18.27;;;6.80;79.10;;;;;;5032694;28;20234;-85
2022/01/13 10:52:37;;;;;;;17.20;16.40;;;6.70;79.10;;;;;;5033173;28;20030;-78
2022/01/13 10:55:08;;;;;;;17.30;16.50;;;6.60;79.00;;;;;;5034974;28;20032;-81
2022/01/13 10:57:34;;;;;;;;;;;6.60;79.20;;;;;;5051028;28;20030;-80
2022/01/13 11:00:00;;;;;;;18.13;17.33;;;6.70;79.20;;;;;;5031218;28;19916;-80
2022/01/13 11:02:27;;;;;;;18.47;17.63;;;6.60;79.00;;;;;;5031867;28;20036;-80
2022/01/13 11:04:53;;;;;;;18.90;17.90;;;6.60;78.80;;;;;;5034238;28;20029;-79
2022/01/13 11:07:24;;;;;;;17.50;16.70;;;6.70;79.00;;;;;;5035147;28;20037;-80
2022/01/13 11:09:58;;;;;;;23.20;22.10;;;6.80;78.80;;;;;;5032418;28;20046;-81
2022/01/13 11:12:33;;;;;;;18.83;17.93;;;6.80;78.60;;;;;;5031981;28;20030;-81
2022/01/13 11:15:06;;;;;;;17.33;16.23;;;6.70;78.40;;;;;;5062575;28;20485;-81
2022/01/13 11:17:34;;;;;;;17.10;16.30;;;6.70;78.60;;;;;;5060700;28;20033;-80
2022/01/13 11:20:00;;;;;;;17.30;16.50;;;6.70;78.80;;;;;;5045346;28;20048;-81
2022/01/13 11:22:28;;;;;;;18.20;17.20;;;6.70;78.80;;;;;;5034595;28;20033;-82
2022/01/13 11:24:55;;;;;;;17.87;17.07;;;6.60;78.90;;;;;;5047576;28;20425;-82
2022/01/13 11:27:22;;;;;;;17.70;16.90;;;6.60;79.00;;;;;;5034225;28;20040;-81
2022/01/13 11:29:48;;;;;;;22.87;21.23;;;6.60;78.90;;;;;;5029742;28;20042;-81
2022/01/13 11:32:17;;;;;;;22.13;21.13;;;6.60;78.80;;;;;;5046315;28;20037;-81
2022/01/13 11:34:43;;;;;;;19.07;18.00;;;6.60;78.80;;;;;;5031305;28;20029;-79
2022/01/13 11:37:09;;;;;;;19.10;18.20;;;6.60;78.80;;;;;;5016788;28;20508;-81
2022/01/13 11:39:43;;;;;;;21.30;20.30;;;6.70;78.90;;;;;;5032372;28;20033;-83
2022/01/13 11:42:13;;;;;;;18.13;17.33;;;6.80;78.90;;;;;;5015573;28;20042;-81
2022/01/13 11:44:40;;;;;;;19.07;18.17;;;6.90;78.80;;;;;;5032594;28;20045;-82
2022/01/13 11:47:22;;;;;;;18.53;17.70;;;7.10;79.20;;;;;;5032267;28;20413;-82
2022/01/13 11:50:05;;;;;;;20.73;19.53;;;7.30;78.20;;;;;;5032371;28;20025;-83
2022/01/13 11:52:43;;;;;;;20.73;19.73;;;7.50;77.70;;;;;;5032909;28;20470;-84
2022/01/13 11:55:29;;;;;;;21.37;20.37;;;7.70;77.40;;;;;;5049563;28;20037;-82
2022/01/13 11:58:15;;;;;;;21.37;20.27;;;7.90;77.00;;;;;;5046645;28;20037;-84
2022/01/13 12:00:42;;;;;;;19.47;18.47;;;8.10;76.60;;;;;;5029552;28;20037;-83
2022/01/13 12:03:33;;;;;;;18.27;17.48;;;8.20;76.20;;;;;;5033203;28;20040;-82
2022/01/13 12:06:00;;;;;;;20.23;19.25;;;8.30;76.10;;;;;;5032402;28;20045;-83
2022/01/13 12:08:37;;;;;;;20.15;19.15;;;8.40;75.60;;;;;;5050537;28;20052;-82
2022/01/13 12:11:03;;;;;;;19.33;18.42;;;8.40;75.50;;;;;;5064016;28;20030;-82
2022/01/13 12:13:29;;;;;;;20.23;19.30;;;8.40;75.50;;;;;;5032130;28;20509;-81
2022/01/13 12:15:55;;;;;;;21.30;20.27;;;8.40;75.50;;;;;;5065237;28;20038;-82
2022/01/13 12:18:57;;;;;;;21.00;20.00;;;8.40;75.40;;;;;;5064616;28;20033;-81
2022/01/13 12:21:25;;;;;;;20.07;19.07;;;8.40;75.40;;;;;;5033513;28;20036;-82
2022/01/13 12:23:51;;;;;;;19.63;18.63;;;8.40;75.50;;;;;;5033297;28;20421;-84
2022/01/13 12:26:32;;;;;;;20.02;19.13;;;8.40;75.40;;;;;;5033891;28;20041;-83
2022/01/13 12:29:10;;;;;;;;;;;8.50;75.40;;;;;;5029713;28;20029;-83
2022/01/13 12:31:49;;;;;;;19.20;18.30;;;8.50;75.10;;;;;;5030320;28;19913;-82
2022/01/13 12:34:27;;;;;;;20.77;19.52;;;8.60;75.10;;;;;;5033714;28;20037;-82
2022/01/13 12:36:54;;;;;;;20.48;19.48;;;8.70;74.60;;;;;;5063813;28;20040;-82
2022/01/13 12:39:21;;;;;;;21.50;20.50;;;8.80;74.60;;;;;;5046684;28;20028;-82
2022/01/13 12:42:03;;;;;;;21.98;20.77;;;8.90;74.40;;;;;;5033427;28;20401;-83
2022/01/13 12:47:14;;;;;;;20.50;19.52;;;9.00;74.10;;;;;;5031718;28;20056;-82
2022/01/13 12:49:41;;;;;;;20.05;19.15;;;9.10;74.00;;;;;;5017457;28;20489;-80
2022/01/13 12:52:07;;;;;;;1999.90;999.90;;;9.20;73.90;;;;;;5033286;28;20042;-81
2022/01/13 12:54:33;;;;;;;1999.90;999.90;;;9.30;73.80;;;;;;5031107;28;20040;-81
2022/01/13 12:57:04;;;;;;;1999.90;999.90;;;9.30;73.70;;;;;;5033609;28;20033;-82
2022/01/13 12:59:30;;;;;;;1999.90;999.90;;;9.40;74.40;;;;;;5031756;28;20029;-81
2022/01/13 13:01:59;;;;;;;1999.90;999.90;;;9.40;73.30;;;;;;5030650;28;20504;-82
2022/01/13 13:04:25;;;;;;;1999.90;999.90;;;9.50;73.20;;;;;;5031565;28;20409;-82
2022/01/13 13:06:53;;;;;;;1999.90;999.90;;;9.40;72.90;;;;;;5031821;28;20029;-81
2022/01/13 13:09:21;;;;;;;1999.90;999.90;;;9.40;73.10;;;;;;5029880;28;20045;-82